Martin State Airport
KMTN : rendu visible

Aérodrome :











RETROUVEZ-NOUS SUR...

 
LOGIN :

S'inscrire | Disclaimer

   EN    FR    IT 

 









Légende :    VFR   VFR Marginal   IFR   IFR Intensif   IFR Très Intensif
Visi : 
Plafond : 
>= 8 km
>= 3000ft
5 à 8 km
1000 à 3000 ft
1500m à 5 km
500 à 1000 ft
800 à 1500m
200 à 500 ft
< 800m
< 200 ft
Symboles :   Orages  Brouillard  Fortes neiges  Fortes précipitations  Vent > 20 kt






- Altitude de l'aérodrome : 21 ft


KMTN - Martin State

DERNIER METAR :
  • 200355Z AUTO 00000KT 10SM OVC060 07/06 A2989 RMK AO2

METARs EXPIRÉS :
  • 200335Z AUTO 00000KT 10SM OVC060 07/06 A2989 RMK AO2
  • 200315Z AUTO 00000KT 7SM OVC060 06/06 A2989 RMK AO2
  • 200254Z 00000KT 7SM BKN060 06/06 A2989
  • 200154Z 00000KT 7SM BKN180 06/06 A2989

TAF KMTN
Valide du 20 à 00h jusqu'au 21 à 00h UTC


192339Z 2000/2024 00000KT P6SM BKN150
FM201600 32010G18KT P6SM BKN045
FM201800 31011G19KT P6SM SCT070
FM202300 31010KT P6SM FEW110 AMD NOT SKED 2002/2012



MET'MAP, la Météo Aéronautique d'un coup d'oeil ! - Copyright ORBIFLY Décembre 2007 - Disclaimer

ORBIFLY MET'MAP TEAM :

Programmation & Développement : Alexandra Zaïnal
Conception & Développement : Baudouin d'Aumeries
Co-Programmation & Développement : Marc-Olivier Méhu
Soutien technique & logistique : Manuel Goepfert

Contact : metmap@orbifly.com




SOURCES & CREDITS :

   NOAA       Earth
Advisory